sensor_id;sensor_type;location;lat;lon;timestamp;pressure;altitude;pressure_sealevel;temperature;humidity
54329;BME280;40710;51.120;13.136;2023-02-26T00:01:40;98901.16;;;1.48;70.95
54329;BME280;40710;51.120;13.136;2023-02-26T00:04:06;98895.06;;;1.51;69.35
54329;BME280;40710;51.120;13.136;2023-02-26T00:06:33;98902.44;;;1.66;69.45
54329;BME280;40710;51.120;13.136;2023-02-26T00:08:59;98910.97;;;1.36;70.09
54329;BME280;40710;51.120;13.136;2023-02-26T00:11:23;98914.59;;;1.28;70.59
54329;BME280;40710;51.120;13.136;2023-02-26T00:13:48;98923.81;;;1.00;71.63
54329;BME280;40710;51.120;13.136;2023-02-26T00:16:26;98917.94;;;1.32;70.74
54329;BME280;40710;51.120;13.136;2023-02-26T00:18:51;98929.41;;;0.81;71.62
54329;BME280;40710;51.120;13.136;2023-02-26T00:21:18;98922.72;;;1.49;70.44
54329;BME280;40710;51.120;13.136;2023-02-26T00:23:43;98924.72;;;1.38;71.79
54329;BME280;40710;51.120;13.136;2023-02-26T00:26:08;98938.19;;;1.15;71.34
54329;BME280;40710;51.120;13.136;2023-02-26T00:28:33;98940.78;;;1.13;72.03
54329;BME280;40710;51.120;13.136;2023-02-26T00:30:58;98943.16;;;1.24;71.79
54329;BME280;40710;51.120;13.136;2023-02-26T00:33:22;98941.31;;;1.29;71.33
54329;BME280;40710;51.120;13.136;2023-02-26T00:35:48;98940.25;;;1.38;71.56
54329;BME280;40710;51.120;13.136;2023-02-26T00:38:17;98942.25;;;1.26;71.51
54329;BME280;40710;51.120;13.136;2023-02-26T00:40:47;98949.78;;;0.97;71.65
54329;BME280;40710;51.120;13.136;2023-02-26T00:43:23;98948.50;;;1.16;71.72
54329;BME280;40710;51.120;13.136;2023-02-26T00:51:55;98945.53;;;1.33;70.60
54329;BME280;40710;51.120;13.136;2023-02-26T00:54:24;98961.75;;;1.01;70.95
54329;BME280;40710;51.120;13.136;2023-02-26T00:56:50;98953.38;;;1.30;71.69
54329;BME280;40710;51.120;13.136;2023-02-26T00:59:17;98953.53;;;1.22;70.63
54329;BME280;40710;51.120;13.136;2023-02-26T01:01:42;98958.25;;;1.03;71.42
54329;BME280;40710;51.120;13.136;2023-02-26T01:04:07;98957.00;;;1.23;70.98
54329;BME280;40710;51.120;13.136;2023-02-26T01:06:33;98950.88;;;1.25;70.53
54329;BME280;40710;51.120;13.136;2023-02-26T01:09:33;98952.56;;;1.65;69.56
54329;BME280;40710;51.120;13.136;2023-02-26T01:12:07;98959.25;;;1.37;69.99
54329;BME280;40710;51.120;13.136;2023-02-26T01:14:34;98955.94;;;1.31;70.82
54329;BME280;40710;51.120;13.136;2023-02-26T01:19:55;98957.22;;;1.51;70.35
54329;BME280;40710;51.120;13.136;2023-02-26T01:22:29;98963.09;;;1.19;70.32
54329;BME280;40710;51.120;13.136;2023-02-26T01:25:05;98963.22;;;1.53;70.90
54329;BME280;40710;51.120;13.136;2023-02-26T01:27:31;98966.16;;;1.36;71.03
54329;BME280;40710;51.120;13.136;2023-02-26T01:29:56;98966.19;;;1.35;71.38
54329;BME280;40710;51.120;13.136;2023-02-26T01:32:42;98969.22;;;1.16;71.22
54329;BME280;40710;51.120;13.136;2023-02-26T01:35:10;98965.28;;;1.75;70.87
54329;BME280;40710;51.120;13.136;2023-02-26T01:37:52;98968.56;;;1.83;69.97
54329;BME280;40710;51.120;13.136;2023-02-26T01:43:06;98968.50;;;1.86;69.67
54329;BME280;40710;51.120;13.136;2023-02-26T01:45:51;98969.59;;;1.76;70.02
54329;BME280;40710;51.120;13.136;2023-02-26T01:48:32;98963.28;;;2.22;68.63
54329;BME280;40710;51.120;13.136;2023-02-26T01:50:59;98974.16;;;2.02;69.76
54329;BME280;40710;51.120;13.136;2023-02-26T01:53:25;98972.84;;;2.20;68.99
54329;BME280;40710;51.120;13.136;2023-02-26T01:55:56;98982.19;;;1.54;70.68
54329;BME280;40710;51.120;13.136;2023-02-26T01:58:26;98980.63;;;1.84;70.21
54329;BME280;40710;51.120;13.136;2023-02-26T02:00:51;98992.28;;;1.64;70.28
54329;BME280;40710;51.120;13.136;2023-02-26T02:03:16;98985.34;;;2.04;69.60
54329;BME280;40710;51.120;13.136;2023-02-26T02:05:53;98993.84;;;1.72;69.87
54329;BME280;40710;51.120;13.136;2023-02-26T02:08:20;98994.66;;;2.11;70.13
54329;BME280;40710;51.120;13.136;2023-02-26T02:10:46;98997.19;;;1.77;69.75
54329;BME280;40710;51.120;13.136;2023-02-26T02:13:27;98998.34;;;2.01;69.77
54329;BME280;40710;51.120;13.136;2023-02-26T02:16:31;98998.94;;;1.76;70.85
54329;BME280;40710;51.120;13.136;2023-02-26T02:19:41;98997.72;;;1.54;70.03
54329;BME280;40710;51.120;13.136;2023-02-26T02:25:13;99014.38;;;1.81;69.99
54329;BME280;40710;51.120;13.136;2023-02-26T02:28:20;99011.34;;;1.63;70.72
54329;BME280;40710;51.120;13.136;2023-02-26T02:31:15;99011.94;;;1.75;70.44
54329;BME280;40710;51.120;13.136;2023-02-26T02:36:21;99010.72;;;2.25;68.99
54329;BME280;40710;51.120;13.136;2023-02-26T02:38:54;99008.81;;;2.32;68.45
54329;BME280;40710;51.120;13.136;2023-02-26T02:41:29;99014.28;;;1.84;69.32
54329;BME280;40710;51.120;13.136;2023-02-26T02:44:00;99019.41;;;2.24;68.54
54329;BME280;40710;51.120;13.136;2023-02-26T02:46:30;99033.63;;;2.06;69.17
54329;BME280;40710;51.120;13.136;2023-02-26T02:49:01;99029.56;;;1.96;69.79
54329;BME280;40710;51.120;13.136;2023-02-26T02:51:46;99038.25;;;1.56;71.38
54329;BME280;40710;51.120;13.136;2023-02-26T02:54:21;99041.81;;;1.89;70.19
54329;BME280;40710;51.120;13.136;2023-02-26T02:57:18;99041.84;;;2.24;69.04
54329;BME280;40710;51.120;13.136;2023-02-26T02:59:48;99040.78;;;2.33;68.77
54329;BME280;40710;51.120;13.136;2023-02-26T03:02:22;99038.81;;;2.06;68.75
54329;BME280;40710;51.120;13.136;2023-02-26T03:04:50;99046.16;;;2.25;69.12
54329;BME280;40710;51.120;13.136;2023-02-26T03:07:15;99052.22;;;1.88;69.52
54329;BME280;40710;51.120;13.136;2023-02-26T03:09:40;99058.19;;;1.92;70.07
54329;BME280;40710;51.120;13.136;2023-02-26T03:12:05;99057.16;;;1.99;69.86
54329;BME280;40710;51.120;13.136;2023-02-26T03:14:31;99070.72;;;2.08;69.87
54329;BME280;40710;51.120;13.136;2023-02-26T03:17:16;99060.44;;;2.07;69.28
54329;BME280;40710;51.120;13.136;2023-02-26T03:20:06;99069.63;;;2.19;69.00
54329;BME280;40710;51.120;13.136;2023-02-26T03:25:22;99081.72;;;2.20;69.51
54329;BME280;40710;51.120;13.136;2023-02-26T03:30:33;99088.81;;;2.12;68.96
54329;BME280;40710;51.120;13.136;2023-02-26T03:35:47;99098.72;;;1.94;69.47
54329;BME280;40710;51.120;13.136;2023-02-26T03:38:27;99106.63;;;1.88;69.38
54329;BME280;40710;51.120;13.136;2023-02-26T03:41:06;99109.44;;;2.18;69.17
54329;BME280;40710;51.120;13.136;2023-02-26T03:43:38;99119.16;;;2.06;69.51
54329;BME280;40710;51.120;13.136;2023-02-26T03:46:08;99123.28;;;1.76;70.46
54329;BME280;40710;51.120;13.136;2023-02-26T03:48:35;99132.44;;;1.93;70.77
54329;BME280;40710;51.120;13.136;2023-02-26T03:51:08;99136.72;;;1.95;70.64
54329;BME280;40710;51.120;13.136;2023-02-26T03:53:40;99131.81;;;2.20;69.97
54329;BME280;40710;51.120;13.136;2023-02-26T03:56:22;99137.31;;;2.06;70.06
54329;BME280;40710;51.120;13.136;2023-02-26T03:58:50;99137.31;;;2.45;68.54
54329;BME280;40710;51.120;13.136;2023-02-26T04:01:19;99152.03;;;2.06;69.89
54329;BME280;40710;51.120;13.136;2023-02-26T04:03:54;99154.78;;;1.98;69.67
54329;BME280;40710;51.120;13.136;2023-02-26T04:06:21;99157.25;;;2.03;70.04
54329;BME280;40710;51.120;13.136;2023-02-26T04:08:46;99152.94;;;2.42;68.46
54329;BME280;40710;51.120;13.136;2023-02-26T04:11:16;99157.09;;;2.50;68.79
54329;BME280;40710;51.120;13.136;2023-02-26T04:13:41;99149.59;;;2.37;68.61
54329;BME280;40710;51.120;13.136;2023-02-26T04:16:06;99152.22;;;2.36;68.78
54329;BME280;40710;51.120;13.136;2023-02-26T04:18:31;99154.97;;;2.65;67.63
54329;BME280;40710;51.120;13.136;2023-02-26T04:20:55;99163.56;;;2.32;68.75
54329;BME280;40710;51.120;13.136;2023-02-26T04:23:20;99169.38;;;2.41;68.35
54329;BME280;40710;51.120;13.136;2023-02-26T04:25:45;99176.72;;;2.22;68.84
54329;BME280;40710;51.120;13.136;2023-02-26T04:28:09;99174.16;;;2.60;68.18
54329;BME280;40710;51.120;13.136;2023-02-26T04:30:34;99171.41;;;2.64;68.03
54329;BME280;40710;51.120;13.136;2023-02-26T04:32:58;99183.91;;;2.49;68.99
54329;BME280;40710;51.120;13.136;2023-02-26T04:35:23;99186.81;;;2.35;68.28
54329;BME280;40710;51.120;13.136;2023-02-26T04:37:48;99195.31;;;2.41;68.81
54329;BME280;40710;51.120;13.136;2023-02-26T04:40:12;99191.81;;;2.80;67.57
54329;BME280;40710;51.120;13.136;2023-02-26T04:42:37;99195.16;;;2.49;68.16
54329;BME280;40710;51.120;13.136;2023-02-26T04:45:02;99198.94;;;2.34;68.67
54329;BME280;40710;51.120;13.136;2023-02-26T04:47:27;99200.13;;;2.58;68.28
54329;BME280;40710;51.120;13.136;2023-02-26T04:49:52;99205.22;;;2.63;67.48
54329;BME280;40710;51.120;13.136;2023-02-26T04:52:16;99208.28;;;2.41;67.68
54329;BME280;40710;51.120;13.136;2023-02-26T04:54:41;99205.75;;;2.76;67.50
54329;BME280;40710;51.120;13.136;2023-02-26T04:57:06;99215.56;;;2.24;68.48
54329;BME280;40710;51.120;13.136;2023-02-26T04:59:30;99211.25;;;2.63;68.42
54329;BME280;40710;51.120;13.136;2023-02-26T05:01:55;99218.59;;;2.44;68.61
54329;BME280;40710;51.120;13.136;2023-02-26T05:04:19;99210.66;;;2.51;67.76
54329;BME280;40710;51.120;13.136;2023-02-26T05:06:44;99219.63;;;2.75;67.14
54329;BME280;40710;51.120;13.136;2023-02-26T05:09:08;99227.88;;;2.55;67.36
54329;BME280;40710;51.120;13.136;2023-02-26T05:11:33;99226.94;;;2.57;68.06
54329;BME280;40710;51.120;13.136;2023-02-26T05:13:57;99243.91;;;2.33;67.96
54329;BME280;40710;51.120;13.136;2023-02-26T05:16:22;99233.31;;;2.81;67.29
54329;BME280;40710;51.120;13.136;2023-02-26T05:18:46;99234.00;;;2.51;66.95
54329;BME280;40710;51.120;13.136;2023-02-26T05:21:11;99231.22;;;2.96;66.97
54329;BME280;40710;51.120;13.136;2023-02-26T05:23:35;99236.66;;;2.87;66.96
54329;BME280;40710;51.120;13.136;2023-02-26T05:26:00;99240.13;;;3.21;66.07
54329;BME280;40710;51.120;13.136;2023-02-26T05:28:25;99238.88;;;3.36;64.85
54329;BME280;40710;51.120;13.136;2023-02-26T05:30:50;99229.34;;;3.37;65.05
54329;BME280;40710;51.120;13.136;2023-02-26T05:33:15;99247.19;;;3.51;64.49
54329;BME280;40710;51.120;13.136;2023-02-26T05:35:39;99251.28;;;3.59;64.11
54329;BME280;40710;51.120;13.136;2023-02-26T05:38:04;99254.03;;;3.19;64.91
54329;BME280;40710;51.120;13.136;2023-02-26T05:40:29;99256.25;;;3.00;65.68
54329;BME280;40710;51.120;13.136;2023-02-26T05:42:53;99265.63;;;3.40;64.59
54329;BME280;40710;51.120;13.136;2023-02-26T05:45:18;99263.94;;;3.39;64.90
54329;BME280;40710;51.120;13.136;2023-02-26T05:47:43;99267.63;;;3.30;65.43
54329;BME280;40710;51.120;13.136;2023-02-26T05:50:08;99274.06;;;3.48;64.30
54329;BME280;40710;51.120;13.136;2023-02-26T05:52:33;99288.94;;;3.07;65.99
54329;BME280;40710;51.120;13.136;2023-02-26T05:54:57;99292.91;;;3.22;66.78
54329;BME280;40710;51.120;13.136;2023-02-26T05:57:23;99297.66;;;3.40;66.71
54329;BME280;40710;51.120;13.136;2023-02-26T05:59:47;99292.63;;;3.69;64.65
54329;BME280;40710;51.120;13.136;2023-02-26T06:02:12;99307.19;;;3.04;65.89
54329;BME280;40710;51.120;13.136;2023-02-26T06:04:38;99308.75;;;3.47;65.63
54329;BME280;40710;51.120;13.136;2023-02-26T06:07:02;99309.09;;;3.68;64.78
54329;BME280;40710;51.120;13.136;2023-02-26T06:09:27;99312.94;;;3.53;64.12
54329;BME280;40710;51.120;13.136;2023-02-26T06:11:51;99320.50;;;3.62;64.46
54329;BME280;40710;51.120;13.136;2023-02-26T06:14:16;99323.16;;;3.25;65.10
54329;BME280;40710;51.120;13.136;2023-02-26T06:16:40;99337.25;;;3.14;65.40
54329;BME280;40710;51.120;13.136;2023-02-26T06:19:05;99332.50;;;3.32;64.19
54329;BME280;40710;51.120;13.136;2023-02-26T06:21:29;99335.69;;;3.07;63.91
54329;BME280;40710;51.120;13.136;2023-02-26T06:23:54;99344.47;;;3.39;65.06
54329;BME280;40710;51.120;13.136;2023-02-26T06:26:18;99342.41;;;3.86;63.42
54329;BME280;40710;51.120;13.136;2023-02-26T06:28:43;99350.78;;;3.65;63.49
54329;BME280;40710;51.120;13.136;2023-02-26T06:31:07;99347.84;;;3.05;64.26
54329;BME280;40710;51.120;13.136;2023-02-26T06:33:32;99355.09;;;3.28;64.20
54329;BME280;40710;51.120;13.136;2023-02-26T06:35:56;99354.53;;;3.15;63.88
54329;BME280;40710;51.120;13.136;2023-02-26T06:38:23;99367.22;;;2.89;64.76
54329;BME280;40710;51.120;13.136;2023-02-26T06:40:48;99363.88;;;3.22;64.44
54329;BME280;40710;51.120;13.136;2023-02-26T06:43:12;99364.91;;;3.15;63.62
54329;BME280;40710;51.120;13.136;2023-02-26T06:45:37;99364.72;;;3.25;64.03
54329;BME280;40710;51.120;13.136;2023-02-26T06:48:02;99386.13;;;2.55;65.84
54329;BME280;40710;51.120;13.136;2023-02-26T06:50:26;99388.69;;;2.97;64.72
54329;BME280;40710;51.120;13.136;2023-02-26T06:52:51;99387.25;;;3.22;64.71
54329;BME280;40710;51.120;13.136;2023-02-26T06:55:16;99391.66;;;3.19;63.77
54329;BME280;40710;51.120;13.136;2023-02-26T06:57:41;99397.09;;;3.08;63.44
54329;BME280;40710;51.120;13.136;2023-02-26T07:00:06;99393.81;;;3.39;63.21
54329;BME280;40710;51.120;13.136;2023-02-26T07:02:32;99400.72;;;3.01;64.10
54329;BME280;40710;51.120;13.136;2023-02-26T07:04:57;99400.16;;;3.65;62.19
54329;BME280;40710;51.120;13.136;2023-02-26T07:07:21;99411.72;;;3.51;62.16
54329;BME280;40710;51.120;13.136;2023-02-26T07:09:46;99411.84;;;3.45;62.79
54329;BME280;40710;51.120;13.136;2023-02-26T07:12:11;99408.28;;;3.85;61.59
54329;BME280;40710;51.120;13.136;2023-02-26T07:14:55;99413.72;;;3.76;62.19
54329;BME280;40710;51.120;13.136;2023-02-26T07:17:20;99420.63;;;3.77;62.12
54329;BME280;40710;51.120;13.136;2023-02-26T07:19:48;99425.31;;;3.24;62.56
54329;BME280;40710;51.120;13.136;2023-02-26T07:22:13;99423.44;;;3.68;61.89
54329;BME280;40710;51.120;13.136;2023-02-26T07:24:38;99430.13;;;3.42;62.42
54329;BME280;40710;51.120;13.136;2023-02-26T07:27:03;99437.97;;;3.39;62.22
54329;BME280;40710;51.120;13.136;2023-02-26T07:29:27;99450.00;;;3.02;63.33
54329;BME280;40710;51.120;13.136;2023-02-26T07:31:52;99454.38;;;3.00;63.18
54329;BME280;40710;51.120;13.136;2023-02-26T07:34:16;99451.03;;;3.36;61.95
54329;BME280;40710;51.120;13.136;2023-02-26T07:36:41;99443.50;;;3.61;61.49
54329;BME280;40710;51.120;13.136;2023-02-26T07:39:06;99437.66;;;3.89;60.76
54329;BME280;40710;51.120;13.136;2023-02-26T07:41:30;99448.84;;;3.56;61.65
54329;BME280;40710;51.120;13.136;2023-02-26T07:43:55;99454.66;;;3.66;62.17
54329;BME280;40710;51.120;13.136;2023-02-26T07:46:19;99465.31;;;3.16;62.33
54329;BME280;40710;51.120;13.136;2023-02-26T07:48:44;99469.25;;;3.33;62.40
54329;BME280;40710;51.120;13.136;2023-02-26T07:51:08;99467.09;;;3.53;62.16
54329;BME280;40710;51.120;13.136;2023-02-26T07:53:34;99456.78;;;3.86;60.44
54329;BME280;40710;51.120;13.136;2023-02-26T07:55:58;99472.63;;;3.38;62.16
54329;BME280;40710;51.120;13.136;2023-02-26T07:58:23;99471.75;;;3.39;61.33
54329;BME280;40710;51.120;13.136;2023-02-26T08:00:47;99479.56;;;3.37;60.83
54329;BME280;40710;51.120;13.136;2023-02-26T08:03:12;99469.38;;;3.67;60.57
54329;BME280;40710;51.120;13.136;2023-02-26T08:05:37;99480.25;;;3.05;62.40
54329;BME280;40710;51.120;13.136;2023-02-26T08:08:01;99485.69;;;3.35;60.44
54329;BME280;40710;51.120;13.136;2023-02-26T08:10:26;99486.84;;;3.60;60.01
54329;BME280;40710;51.120;13.136;2023-02-26T08:12:51;99475.09;;;4.18;59.60
54329;BME280;40710;51.120;13.136;2023-02-26T08:15:15;99491.47;;;3.48;60.62
54329;BME280;40710;51.120;13.136;2023-02-26T08:17:40;99491.91;;;3.67;59.84
54329;BME280;40710;51.120;13.136;2023-02-26T08:20:06;99487.38;;;4.12;59.46
54329;BME280;40710;51.120;13.136;2023-02-26T08:22:31;99488.78;;;4.59;57.77
54329;BME280;40710;51.120;13.136;2023-02-26T08:24:56;99486.22;;;4.57;57.57
54329;BME280;40710;51.120;13.136;2023-02-26T08:27:20;99495.03;;;4.51;58.34
54329;BME280;40710;51.120;13.136;2023-02-26T08:29:45;99491.59;;;4.51;57.47
54329;BME280;40710;51.120;13.136;2023-02-26T08:32:09;99481.91;;;4.56;57.15
54329;BME280;40710;51.120;13.136;2023-02-26T08:34:34;99490.38;;;3.95;57.24
54329;BME280;40710;51.120;13.136;2023-02-26T08:36:58;99494.22;;;4.49;56.62
54329;BME280;40710;51.120;13.136;2023-02-26T08:39:23;99495.00;;;4.86;56.12
54329;BME280;40710;51.120;13.136;2023-02-26T08:41:47;99503.94;;;4.43;57.07
54329;BME280;40710;51.120;13.136;2023-02-26T08:44:12;99494.09;;;5.17;55.97
54329;BME280;40710;51.120;13.136;2023-02-26T08:46:37;99507.53;;;5.33;55.17
54329;BME280;40710;51.120;13.136;2023-02-26T08:49:01;99509.88;;;5.12;55.96
54329;BME280;40710;51.120;13.136;2023-02-26T08:51:26;99520.53;;;5.03;55.83
54329;BME280;40710;51.120;13.136;2023-02-26T08:53:50;99518.59;;;5.41;54.75
54329;BME280;40710;51.120;13.136;2023-02-26T08:56:16;99525.13;;;4.95;55.74
54329;BME280;40710;51.120;13.136;2023-02-26T08:58:41;99535.31;;;5.02;55.79
54329;BME280;40710;51.120;13.136;2023-02-26T09:01:05;99542.16;;;5.06;56.94
54329;BME280;40710;51.120;13.136;2023-02-26T09:03:30;99550.00;;;5.05;57.00
54329;BME280;40710;51.120;13.136;2023-02-26T09:05:54;99542.34;;;5.00;54.75
54329;BME280;40710;51.120;13.136;2023-02-26T09:08:19;99548.13;;;5.10;55.76
54329;BME280;40710;51.120;13.136;2023-02-26T09:10:44;99553.41;;;4.76;56.72
54329;BME280;40710;51.120;13.136;2023-02-26T09:13:09;99553.53;;;5.04;55.24
54329;BME280;40710;51.120;13.136;2023-02-26T09:15:33;99567.56;;;4.98;56.02
54329;BME280;40710;51.120;13.136;2023-02-26T09:17:58;99563.56;;;4.85;55.60
54329;BME280;40710;51.120;13.136;2023-02-26T09:20:23;99578.81;;;5.32;56.03
54329;BME280;40710;51.120;13.136;2023-02-26T09:22:47;99573.06;;;5.50;54.65
54329;BME280;40710;51.120;13.136;2023-02-26T09:25:12;99566.34;;;5.71;54.42
54329;BME280;40710;51.120;13.136;2023-02-26T09:27:37;99579.66;;;5.92;54.67
54329;BME280;40710;51.120;13.136;2023-02-26T09:30:03;99579.34;;;5.73;54.56
54329;BME280;40710;51.120;13.136;2023-02-26T09:32:28;99590.16;;;5.29;55.25
54329;BME280;40710;51.120;13.136;2023-02-26T09:34:53;99594.78;;;5.51;55.38
54329;BME280;40710;51.120;13.136;2023-02-26T09:37:17;99604.00;;;5.62;55.20
54329;BME280;40710;51.120;13.136;2023-02-26T09:39:42;99609.88;;;5.39;55.64
54329;BME280;40710;51.120;13.136;2023-02-26T09:44:54;99621.09;;;4.40;57.80
54329;BME280;40710;51.120;13.136;2023-02-26T09:47:29;99611.72;;;5.65;54.91
54329;BME280;40710;51.120;13.136;2023-02-26T09:52:42;99590.06;;;7.25;52.34
54329;BME280;40710;51.120;13.136;2023-02-26T09:55:18;99565.53;;;10.39;44.41
54329;BME280;40710;51.120;13.136;2023-02-26T09:57:52;99575.22;;;10.56;41.33
54329;BME280;40710;51.120;13.136;2023-02-26T10:00:40;99559.81;;;11.83;39.86
54329;BME280;40710;51.120;13.136;2023-02-26T10:14:15;99633.44;;;7.06;50.05
54329;BME280;40710;51.120;13.136;2023-02-26T10:16:46;99635.34;;;6.75;50.42
54329;BME280;40710;51.120;13.136;2023-02-26T10:19:17;99635.94;;;7.34;49.10
54329;BME280;40710;51.120;13.136;2023-02-26T10:21:48;99640.84;;;7.18;49.98
54329;BME280;40710;51.120;13.136;2023-02-26T10:24:24;99645.41;;;7.62;48.81
54329;BME280;40710;51.120;13.136;2023-02-26T10:27:02;99642.56;;;8.37;47.38
54329;BME280;40710;51.120;13.136;2023-02-26T10:33:21;99660.41;;;6.81;51.14
54329;BME280;40710;51.120;13.136;2023-02-26T10:35:59;99653.75;;;6.97;50.50
54329;BME280;40710;51.120;13.136;2023-02-26T10:38:29;99668.44;;;7.02;51.64
54329;BME280;40710;51.120;13.136;2023-02-26T10:40:59;99668.03;;;7.14;51.88
54329;BME280;40710;51.120;13.136;2023-02-26T10:43:41;99671.88;;;6.77;51.89
54329;BME280;40710;51.120;13.136;2023-02-26T10:46:33;99685.19;;;6.68;51.89
54329;BME280;40710;51.120;13.136;2023-02-26T10:51:48;99684.03;;;7.30;51.16
54329;BME280;40710;51.120;13.136;2023-02-26T10:54:25;99678.47;;;7.88;49.66
54329;BME280;40710;51.120;13.136;2023-02-26T10:56:51;99669.88;;;8.08;48.02
54329;BME280;40710;51.120;13.136;2023-02-26T10:59:15;99674.25;;;7.60;49.56
54329;BME280;40710;51.120;13.136;2023-02-26T11:01:40;99680.34;;;7.84;48.60
54329;BME280;40710;51.120;13.136;2023-02-26T11:04:12;99680.63;;;7.28;50.01
54329;BME280;40710;51.120;13.136;2023-02-26T11:06:49;99683.00;;;7.09;49.54
54329;BME280;40710;51.120;13.136;2023-02-26T11:09:33;99701.69;;;6.41;52.08
54329;BME280;40710;51.120;13.136;2023-02-26T11:14:36;99696.63;;;6.92;51.51
54329;BME280;40710;51.120;13.136;2023-02-26T11:17:09;99706.44;;;6.57;52.23
54329;BME280;40710;51.120;13.136;2023-02-26T11:19:37;99712.56;;;6.28;53.13
54329;BME280;40710;51.120;13.136;2023-02-26T11:22:04;99699.25;;;6.63;51.24
54329;BME280;40710;51.120;13.136;2023-02-26T11:24:34;99693.50;;;7.07;50.10
54329;BME280;40710;51.120;13.136;2023-02-26T11:27:03;99694.00;;;6.65;50.61
54329;BME280;40710;51.120;13.136;2023-02-26T11:29:35;99694.69;;;7.24;49.33
54329;BME280;40710;51.120;13.136;2023-02-26T11:32:02;99699.31;;;7.66;49.31
54329;BME280;40710;51.120;13.136;2023-02-26T11:34:28;99703.69;;;6.88;49.79
54329;BME280;40710;51.120;13.136;2023-02-26T11:36:57;99699.69;;;7.55;48.93
54329;BME280;40710;51.120;13.136;2023-02-26T11:39:25;99681.00;;;9.64;45.69
54329;BME280;40710;51.120;13.136;2023-02-26T11:41:56;99700.09;;;7.68;47.61
54329;BME280;40710;51.120;13.136;2023-02-26T11:44:37;99703.41;;;7.49;49.21
54329;BME280;40710;51.120;13.136;2023-02-26T11:47:09;99709.31;;;7.03;49.95
54329;BME280;40710;51.120;13.136;2023-02-26T11:49:41;99713.44;;;7.36;50.16
54329;BME280;40710;51.120;13.136;2023-02-26T11:54:37;99707.56;;;7.55;48.25
54329;BME280;40710;51.120;13.136;2023-02-26T11:57:05;99705.53;;;7.63;47.81
54329;BME280;40710;51.120;13.136;2023-02-26T11:59:32;99712.69;;;7.06;49.43
54329;BME280;40710;51.120;13.136;2023-02-26T12:02:09;99707.69;;;7.25;48.11
54329;BME280;40710;51.120;13.136;2023-02-26T12:04:38;99708.88;;;7.67;50.09
54329;BME280;40710;51.120;13.136;2023-02-26T12:07:04;99706.13;;;7.71;48.89
54329;BME280;40710;51.120;13.136;2023-02-26T12:09:29;99717.16;;;7.54;49.25
54329;BME280;40710;51.120;13.136;2023-02-26T12:14:43;99716.81;;;6.87;49.18
54329;BME280;40710;51.120;13.136;2023-02-26T12:19:48;99714.22;;;7.38;48.09
54329;BME280;40710;51.120;13.136;2023-02-26T12:23:19;99718.03;;;6.75;49.70
54329;BME280;40710;51.120;13.136;2023-02-26T12:31:25;99709.53;;;6.96;47.94
54329;BME280;40710;51.120;13.136;2023-02-26T12:34:11;99708.56;;;7.51;47.62
54329;BME280;40710;51.120;13.136;2023-02-26T12:36:55;99703.97;;;7.32;47.45
54329;BME280;40710;51.120;13.136;2023-02-26T12:45:26;99717.78;;;6.84;48.28
54329;BME280;40710;51.120;13.136;2023-02-26T12:51:11;99720.75;;;6.73;48.21
54329;BME280;40710;51.120;13.136;2023-02-26T12:59:35;99731.34;;;6.95;48.15
54329;BME280;40710;51.120;13.136;2023-02-26T13:04:57;99744.22;;;6.15;49.53
54329;BME280;40710;51.120;13.136;2023-02-26T13:08:02;99734.00;;;6.94;49.03
54329;BME280;40710;51.120;13.136;2023-02-26T13:11:07;99741.69;;;6.98;48.06
54329;BME280;40710;51.120;13.136;2023-02-26T13:14:11;99750.66;;;6.03;49.12
54329;BME280;40710;51.120;13.136;2023-02-26T13:19:36;99736.97;;;7.36;47.71
54329;BME280;40710;51.120;13.136;2023-02-26T13:22:15;99743.47;;;7.25;48.32
54329;BME280;40710;51.120;13.136;2023-02-26T13:24:46;99746.59;;;6.53;47.92
54329;BME280;40710;51.120;13.136;2023-02-26T13:27:15;99751.13;;;6.76;48.49
54329;BME280;40710;51.120;13.136;2023-02-26T13:29:47;99742.00;;;7.16;47.51
54329;BME280;40710;51.120;13.136;2023-02-26T13:32:18;99749.25;;;6.79;47.44
54329;BME280;40710;51.120;13.136;2023-02-26T13:34:52;99746.09;;;6.70;47.58
54329;BME280;40710;51.120;13.136;2023-02-26T13:37:22;99742.38;;;7.30;47.35
54329;BME280;40710;51.120;13.136;2023-02-26T13:40:21;99747.75;;;6.44;48.02
54329;BME280;40710;51.120;13.136;2023-02-26T13:51:30;99746.03;;;7.51;45.05
54329;BME280;40710;51.120;13.136;2023-02-26T13:54:01;99747.75;;;6.99;45.00
54329;BME280;40710;51.120;13.136;2023-02-26T13:59:02;99747.41;;;6.83;45.61
54329;BME280;40710;51.120;13.136;2023-02-26T14:01:28;99750.09;;;7.35;45.34
54329;BME280;40710;51.120;13.136;2023-02-26T14:06:53;99768.59;;;6.74;47.77
54329;BME280;40710;51.120;13.136;2023-02-26T14:17:17;99775.03;;;6.90;47.58
54329;BME280;40710;51.120;13.136;2023-02-26T14:25:10;99768.22;;;6.86;47.66
54329;BME280;40710;51.120;13.136;2023-02-26T14:27:39;99779.22;;;6.38;48.90
54329;BME280;40710;51.120;13.136;2023-02-26T14:35:20;99774.38;;;7.12;47.33
54329;BME280;40710;51.120;13.136;2023-02-26T14:38:25;99783.78;;;7.17;47.52
54329;BME280;40710;51.120;13.136;2023-02-26T14:41:04;99785.75;;;7.36;47.41
54329;BME280;40710;51.120;13.136;2023-02-26T14:43:46;99801.19;;;6.60;49.17
54329;BME280;40710;51.120;13.136;2023-02-26T14:46:15;99787.13;;;6.94;48.13
54329;BME280;40710;51.120;13.136;2023-02-26T14:48:39;99800.41;;;6.87;48.51
54329;BME280;40710;51.120;13.136;2023-02-26T14:51:22;99792.72;;;7.10;48.03
54329;BME280;40710;51.120;13.136;2023-02-26T14:54:00;99794.75;;;7.00;48.74
54329;BME280;40710;51.120;13.136;2023-02-26T14:57:06;99809.66;;;6.39;49.54
54329;BME280;40710;51.120;13.136;2023-02-26T14:59:43;99803.72;;;7.20;48.09
54329;BME280;40710;51.120;13.136;2023-02-26T15:02:22;99802.88;;;6.63;48.54
54329;BME280;40710;51.120;13.136;2023-02-26T15:05:13;99812.25;;;6.40;49.95
54329;BME280;40710;51.120;13.136;2023-02-26T15:11:07;99808.34;;;6.54;48.78
54329;BME280;40710;51.120;13.136;2023-02-26T15:16:52;99811.78;;;6.26;50.92
54329;BME280;40710;51.120;13.136;2023-02-26T15:19:50;99811.97;;;6.50;50.14